Time;durP1;ratioP1;P1;durP2;ratioP2;P2;SDS_P1;SDS_P2;PMS_P1;PMS_P2;Temp;Humidity;BMP_temperature;BMP_pressure;BME280_temperature;BME280_humidity;BME280_pressure;Samples;Min_cycle;Max_cycle;Signal;HPM_P1;HPM_P2
2021/07/07 00:01:25;;;;;;;1999.90;999.90;;;18.80;99.90;;;;;;5081137;28;20183;-82
2021/07/07 00:03:51;;;;;;;1999.90;999.90;;;18.80;99.90;;;;;;5080896;28;20168;-82
2021/07/07 00:06:16;;;;;;;1999.90;999.90;;;18.80;99.90;;;;;;5062625;28;20275;-82
2021/07/07 00:08:42;;;;;;;1999.90;999.90;;;18.80;99.90;;;;;;5080744;28;20175;-82
2021/07/07 00:11:07;;;;;;;1999.90;999.90;;;18.80;99.90;;;;;;5062383;28;20171;-82
2021/07/07 00:13:33;;;;;;;1999.90;999.90;;;18.70;99.90;;;;;;5080469;28;20171;-82
2021/07/07 00:15:59;;;;;;;1999.90;999.90;;;18.70;99.90;;;;;;5062399;28;20183;-82
2021/07/07 00:18:25;;;;;;;1999.90;999.90;;;18.70;99.90;;;;;;5080132;28;20167;-82
2021/07/07 00:20:56;;;;;;;1999.90;999.90;;;18.70;99.90;;;;;;5062831;28;20227;-82
2021/07/07 00:23:26;;;;;;;1999.90;999.90;;;18.70;99.90;;;;;;5081331;28;20150;-82
2021/07/07 00:25:53;;;;;;;1999.90;999.90;;;18.60;99.90;;;;;;5081012;28;20425;-82
2021/07/07 00:28:20;;;;;;;1999.90;999.90;;;18.60;99.90;;;;;;5062997;28;20402;-82
2021/07/07 00:30:47;;;;;;;1999.90;999.90;;;18.50;99.90;;;;;;5079641;28;20413;-82
2021/07/07 00:33:14;;;;;;;1999.90;999.90;;;18.50;99.90;;;;;;5061177;28;20484;-82
2021/07/07 00:35:40;;;;;;;1999.90;999.90;;;18.40;99.90;;;;;;5078900;28;20464;-82
2021/07/07 00:38:06;;;;;;;1999.90;999.90;;;18.50;99.90;;;;;;5079069;28;20405;-82
2021/07/07 00:40:31;;;;;;;1999.90;999.90;;;18.40;99.90;;;;;;5060911;28;20613;-82
2021/07/07 00:42:57;;;;;;;1999.90;999.90;;;18.40;99.90;;;;;;5079495;28;20205;-82
2021/07/07 00:45:23;;;;;;;1999.90;999.90;;;18.40;99.90;;;;;;5078937;28;20274;-82
2021/07/07 00:47:49;;;;;;;1999.90;999.90;;;18.30;99.90;;;;;;5078624;28;20562;-82
2021/07/07 00:50:16;;;;;;;1999.90;999.90;;;18.20;99.90;;;;;;5078742;28;20398;-82
2021/07/07 00:52:43;;;;;;;1999.90;999.90;;;18.20;99.90;;;;;;5078140;28;20168;-82
2021/07/07 00:55:11;;;;;;;1999.90;999.90;;;18.20;99.90;;;;;;5078511;28;20399;-82
2021/07/07 00:57:36;;;;;;;1999.90;999.90;;;18.20;99.90;;;;;;5077871;28;20394;-80
2021/07/07 01:00:23;;;;;;;1999.90;999.90;;;18.20;99.90;;;;;;5059784;28;20478;-82
2021/07/07 01:02:51;;;;;;;1999.90;999.90;;;18.20;99.90;;;;;;5078971;28;20162;-82
2021/07/07 01:05:17;;;;;;;1999.90;999.90;;;18.20;99.90;;;;;;5060257;28;20406;-81
2021/07/07 01:07:44;;;;;;;1999.90;999.90;;;18.20;99.90;;;;;;5061138;28;20410;-82
2021/07/07 01:10:12;;;;;;;1999.90;999.90;;;18.20;99.90;;;;;;5060859;28;20655;-82
2021/07/07 01:12:38;;;;;;;1999.90;999.90;;;18.20;99.90;;;;;;5078040;28;20410;-82
2021/07/07 01:15:10;;;;;;;1999.90;999.90;;;18.20;99.90;;;;;;5078596;28;20406;-81
2021/07/07 01:17:37;;;;;;;1999.90;999.90;;;18.10;99.90;;;;;;5078821;28;20227;-82
2021/07/07 01:20:20;;;;;;;1999.90;999.90;;;18.10;99.90;;;;;;5078478;28;20413;-82
2021/07/07 01:22:46;;;;;;;1999.90;999.90;;;18.10;99.90;;;;;;5061706;28;20921;-82
2021/07/07 01:25:13;;;;;;;1999.90;999.90;;;18.00;99.90;;;;;;5078365;28;20493;-82
2021/07/07 01:27:41;;;;;;;1999.90;999.90;;;17.90;99.90;;;;;;5078537;28;20302;-82
2021/07/07 01:30:10;;;;;;;1999.90;999.90;;;17.90;99.90;;;;;;5079056;28;20405;-82
2021/07/07 01:33:04;;;;;;;1999.90;999.90;;;17.80;99.90;;;;;;4643523;22;15108182;-83
2021/07/07 01:35:55;;;;;;;1999.90;999.90;;;17.80;99.90;;;;;;5077341;28;20543;-83
2021/07/07 01:39:03;;;;;;;1999.90;999.90;;;17.70;99.90;;;;;;5077990;28;20409;-82
2021/07/07 01:41:44;;;;;;;1999.90;999.90;;;17.80;99.90;;;;;;5077590;28;20532;-81
2021/07/07 01:44:24;;;;;;;1999.90;999.90;;;17.80;99.90;;;;;;5059054;28;20513;-81
2021/07/07 01:47:16;;;;;;;;;;;;;;;;;;;;;
2021/07/07 01:49:57;;;;;;;1999.90;999.90;;;17.80;99.90;;;;;;5077504;28;20588;-81
2021/07/07 01:52:49;;;;;;;1999.90;999.90;;;17.90;99.90;;;;;;5077801;28;20469;-82
2021/07/07 01:55:50;;;;;;;1999.90;999.90;;;17.90;99.90;;;;;;5075402;28;20418;-81
2021/07/07 01:58:48;;;;;;;1999.90;999.90;;;17.90;99.90;;;;;;4996667;28;20960;-81
2021/07/07 02:01:41;;;;;;;1999.90;999.90;;;17.90;99.90;;;;;;5076958;28;20442;-81
2021/07/07 02:04:22;;;;;;;1999.90;999.90;;;17.90;99.90;;;;;;5077707;28;20465;-81
2021/07/07 02:06:59;;;;;;;1999.90;999.90;;;17.80;99.90;;;;;;5077393;28;20424;-81
2021/07/07 02:09:28;;;;;;;1999.90;999.90;;;17.80;99.90;;;;;;5077281;28;20957;-81
2021/07/07 02:12:23;;;;;;;1999.90;999.90;;;17.70;99.90;;;;;;5077475;28;20475;-81
2021/07/07 02:15:29;;;;;;;;;;;;;;;;;;;;;
2021/07/07 02:18:11;;;;;;;1999.90;999.90;;;17.60;99.90;;;;;;5077304;28;20454;-81
2021/07/07 02:20:48;;;;;;;1999.90;999.90;;;17.60;99.90;;;;;;5076787;28;20452;-81
2021/07/07 02:23:42;;;;;;;1999.90;999.90;;;17.60;99.90;;;;;;5077358;28;20421;-81
2021/07/07 02:26:29;;;;;;;1999.90;999.90;;;17.60;99.90;;;;;;5058768;28;20434;-81
2021/07/07 02:29:07;;;;;;;1999.90;999.90;;;17.60;99.90;;;;;;5076717;28;20436;-81
2021/07/07 02:31:39;;;;;;;1999.90;999.90;;;17.60;99.90;;;;;;5076549;28;20485;-81
2021/07/07 02:37:38;;;;;;;1999.90;999.90;;;17.60;99.90;;;;;;5042660;28;20434;-82
2021/07/07 02:40:45;;;;;;;;;;;;;;;;;;;;;
2021/07/07 02:43:56;;;;;;;;;;;;;;;;;;;;;
2021/07/07 02:46:44;;;;;;;1999.90;999.90;;;17.40;99.90;;;;;;5074338;28;20513;-81
2021/07/07 02:49:19;;;;;;;1999.90;999.90;;;17.40;99.90;;;;;;5077221;28;20402;-81
2021/07/07 02:52:08;;;;;;;1999.90;999.90;;;17.30;99.90;;;;;;5075269;28;20921;-81
2021/07/07 02:54:54;;;;;;;;;;;;;;;;;;;;;
2021/07/07 03:01:06;;;;;;;1999.90;999.90;;;17.20;99.90;;;;;;4994841;28;20956;-80
2021/07/07 03:04:15;;;;;;;1999.90;999.90;;;17.30;99.90;;;;;;4999471;28;20411;-80
2021/07/07 03:06:47;;;;;;;1999.90;999.90;;;17.30;99.90;;;;;;5076324;28;20475;-81
2021/07/07 03:09:21;;;;;;;1999.90;999.90;;;17.30;99.90;;;;;;5076294;28;20874;-80
2021/07/07 03:11:59;;;;;;;1999.90;999.90;;;17.30;99.90;;;;;;5076817;28;20961;-80
2021/07/07 03:14:25;;;;;;;1999.90;999.90;;;17.30;99.90;;;;;;5076779;28;20378;-80
2021/07/07 03:17:20;;;;;;;1999.90;999.90;;;17.30;99.90;;;;;;5074731;28;20442;-81
2021/07/07 03:19:58;;;;;;;1999.90;999.90;;;17.20;99.90;;;;;;5076401;28;20413;-81
2021/07/07 03:22:38;;;;;;;1999.90;999.90;;;17.20;99.90;;;;;;5076013;28;20418;-81
2021/07/07 03:25:29;;;;;;;1999.90;999.90;;;17.30;99.90;;;;;;5075906;28;20378;-80
2021/07/07 03:27:57;;;;;;;1999.90;999.90;;;17.20;99.90;;;;;;5075419;28;20398;-81
2021/07/07 03:30:35;;;;;;;1999.90;999.90;;;17.20;99.90;;;;;;5056903;28;20411;-80
2021/07/07 03:33:25;;;;;;;1999.90;999.90;;;17.20;99.90;;;;;;5075832;28;20412;-80
2021/07/07 03:36:22;;;;;;;1999.90;999.90;;;17.20;99.90;;;;;;5075383;28;20521;-80
2021/07/07 03:39:19;;;;;;;1999.90;999.90;;;17.10;99.90;;;;;;5076173;28;20386;-80
2021/07/07 03:41:59;;;;;;;1999.90;999.90;;;17.00;99.90;;;;;;5049347;28;20955;-80
2021/07/07 03:44:35;;;;;;;1999.90;999.90;;;16.90;99.90;;;;;;5076711;28;20466;-80
2021/07/07 03:47:09;;;;;;;1999.90;999.90;;;16.90;99.90;;;;;;5079575;22;20468;-80
2021/07/07 03:49:50;;;;;;;1999.90;999.90;;;16.90;99.90;;;;;;5116175;28;20407;-80
2021/07/07 03:52:48;;;;;;;1999.90;999.90;;;16.90;99.90;;;;;;5114873;28;20404;-81
2021/07/07 03:55:26;;;;;;;1999.90;999.90;;;16.90;99.90;;;;;;5115930;28;20425;-81
2021/07/07 03:58:47;;;;;;;1999.90;999.90;;;17.00;99.90;;;;;;5116599;28;20385;-80
2021/07/07 04:01:00;;;;;;;1999.90;999.90;;;17.00;99.90;;;;;;5108196;28;20460;-80
2021/07/07 04:03:42;;;;;;;1999.90;999.90;;;17.00;99.90;;;;;;5115097;28;20400;-80
2021/07/07 04:06:12;;;;;;;1999.90;999.90;;;17.10;99.90;;;;;;5096823;28;20428;-80
2021/07/07 04:08:47;;;;;;;1999.90;999.90;;;17.10;99.90;;;;;;5119621;28;20380;-80
2021/07/07 04:11:29;;;;;;;1999.90;999.90;;;17.00;99.90;;;;;;5100651;28;20451;-80
2021/07/07 04:13:57;;;;;;;1999.90;999.90;;;17.00;99.90;;;;;;5120019;28;20397;-81
2021/07/07 04:16:30;;;;;;;1999.90;999.90;;;17.00;99.90;;;;;;5119802;28;20432;-80
2021/07/07 04:18:56;;;;;;;1999.90;999.90;;;17.00;99.90;;;;;;5119627;28;20418;-81
2021/07/07 04:21:40;;;;;;;1999.90;999.90;;;17.00;99.90;;;;;;5118182;28;20440;-81
2021/07/07 04:24:14;;;;;;;1999.90;999.90;;;17.10;99.90;;;;;;5118173;28;20517;-80
2021/07/07 04:27:03;;;;;;;1999.90;999.90;;;17.10;99.90;;;;;;5119602;28;20516;-80
2021/07/07 04:29:45;;;;;;;1999.90;999.90;;;17.20;99.90;;;;;;5110897;28;20408;-80
2021/07/07 04:32:19;;;;;;;1999.90;999.90;;;17.20;99.90;;;;;;5120154;28;20973;-81
2021/07/07 04:34:56;;;;;;;1999.90;999.90;;;17.30;99.90;;;;;;5118530;28;20403;-80
2021/07/07 04:37:27;;;;;;;1999.90;999.90;;;17.30;99.90;;;;;;5120538;28;20420;-80
2021/07/07 04:40:03;;;;;;;1999.90;999.90;;;17.30;99.90;;;;;;5101593;28;20415;-80
2021/07/07 04:42:35;;;;;;;1999.90;999.90;;;17.20;99.90;;;;;;5118440;28;20396;-80
2021/07/07 04:45:11;;;;;;;1999.90;999.90;;;17.20;99.90;;;;;;5117998;28;20405;-80
2021/07/07 04:47:43;;;;;;;1999.90;999.90;;;17.20;99.90;;;;;;5119216;28;20415;-80
2021/07/07 04:50:13;;;;;;;1999.90;999.90;;;17.30;99.90;;;;;;5118507;28;20903;-80
2021/07/07 04:52:48;;;;;;;1999.90;999.90;;;17.30;99.90;;;;;;5119904;28;20439;-80
2021/07/07 04:55:25;;;;;;;1999.90;999.90;;;17.30;99.90;;;;;;5118560;28;20389;-81
2021/07/07 04:58:02;;;;;;;1999.90;999.90;;;17.40;99.90;;;;;;5117378;28;20423;-80
2021/07/07 05:00:35;;;;;;;1999.90;999.90;;;17.50;99.90;;;;;;5119298;28;20485;-81
2021/07/07 05:03:29;;;;;;;1999.90;999.90;;;17.50;99.90;;;;;;5119247;28;20393;-80
2021/07/07 05:06:09;;;;;;;1999.90;999.90;;;17.60;99.90;;;;;;5094868;28;20428;-80
2021/07/07 05:09:02;;;;;;;1999.90;999.90;;;17.60;99.90;;;;;;5119183;28;20405;-80
2021/07/07 05:11:43;;;;;;;;;;;;;;;;;;;;;
2021/07/07 05:14:47;;;;;;;;;;;;;;;;;;;;;
2021/07/07 05:17:20;;;;;;;1999.90;999.90;;;17.80;99.90;;;;;;5079871;28;20511;-80
2021/07/07 05:19:53;;;;;;;1999.90;999.90;;;17.80;99.90;;;;;;5118953;28;20453;-80
2021/07/07 05:22:34;;;;;;;1999.90;999.90;;;17.80;99.90;;;;;;5118723;28;20428;-80
2021/07/07 05:25:10;;;;;;;1999.90;999.90;;;17.80;99.90;;;;;;5118617;28;20381;-80
2021/07/07 05:27:42;;;;;;;1999.90;999.90;;;17.90;99.90;;;;;;5100647;28;20419;-80
2021/07/07 05:30:27;;;;;;;1999.90;999.90;;;17.90;99.90;;;;;;5116612;28;20408;-80
2021/07/07 05:33:33;;;;;;;1999.90;999.90;;;18.00;99.90;;;;;;5100168;28;20491;-80
2021/07/07 05:36:11;;;;;;;1999.90;999.90;;;18.00;99.90;;;;;;5116754;28;20424;-80
2021/07/07 05:38:53;;;;;;;1999.90;999.90;;;18.00;99.90;;;;;;5117126;28;20488;-80
2021/07/07 05:41:19;;;;;;;1999.90;999.90;;;18.00;99.90;;;;;;5100950;28;20449;-81
2021/07/07 05:43:46;;;;;;;1999.90;999.90;;;18.10;99.90;;;;;;5118796;28;20432;-80
2021/07/07 05:46:12;;;;;;;1999.90;999.90;;;18.10;99.90;;;;;;5117637;28;20201;-80
2021/07/07 05:48:38;;;;;;;1999.90;999.90;;;18.20;99.90;;;;;;5100743;28;20468;-81
2021/07/07 05:51:04;;;;;;;1999.90;999.90;;;18.20;99.90;;;;;;5118636;28;20662;-81
2021/07/07 05:53:33;;;;;;;1999.90;999.90;;;18.20;99.90;;;;;;5118956;28;20404;-81
2021/07/07 05:55:58;;;;;;;1999.90;999.90;;;18.20;99.90;;;;;;5118607;28;20420;-81
2021/07/07 05:58:24;;;;;;;1999.90;999.90;;;18.30;99.90;;;;;;5118798;28;20677;-81
2021/07/07 06:00:50;;;;;;;1999.90;999.90;;;18.30;99.90;;;;;;5119008;28;20194;-81
2021/07/07 06:03:16;;;;;;;1999.90;999.90;;;18.40;99.90;;;;;;5117936;28;20404;-81
2021/07/07 06:05:42;;;;;;;1999.90;999.90;;;18.40;99.90;;;;;;5119343;28;20519;-81
2021/07/07 06:08:07;;;;;;;1999.90;999.90;;;18.50;99.90;;;;;;5119295;28;20250;-81
2021/07/07 06:10:33;;;;;;;1999.90;999.90;;;18.50;99.90;;;;;;5117773;28;20253;-81
2021/07/07 06:12:59;;;;;;;1999.90;999.90;;;18.70;99.90;;;;;;5118938;28;20170;-81
2021/07/07 06:15:25;;;;;;;1999.90;999.90;;;18.70;99.90;;;;;;5118168;28;20424;-81
2021/07/07 06:17:51;;;;;;;1999.90;999.90;;;18.80;99.90;;;;;;5117428;28;20170;-81
2021/07/07 06:20:17;;;;;;;1999.90;999.90;;;18.80;99.90;;;;;;5119146;28;20405;-80
2021/07/07 06:22:44;;;;;;;1999.90;999.90;;;18.90;99.90;;;;;;5118896;28;20416;-81
2021/07/07 06:25:12;;;;;;;1999.90;999.90;;;18.90;99.90;;;;;;5118803;28;20514;-80
2021/07/07 06:27:40;;;;;;;1999.90;999.90;;;18.90;99.90;;;;;;5118757;28;20396;-80
2021/07/07 06:30:08;;;;;;;1999.90;999.90;;;18.90;99.90;;;;;;5117195;28;20435;-81
2021/07/07 06:32:34;;;;;;;1999.90;999.90;;;19.00;99.90;;;;;;5118487;28;20389;-81
2021/07/07 06:35:05;;;;;;;1999.90;999.90;;;19.10;99.90;;;;;;5117714;28;20415;-80
2021/07/07 06:37:34;;;;;;;1999.90;999.90;;;19.10;99.90;;;;;;5098895;28;20158;-80
2021/07/07 06:40:03;;;;;;;1999.90;999.90;;;19.20;99.90;;;;;;5118120;28;20396;-80
2021/07/07 06:42:32;;;;;;;1999.90;999.90;;;19.30;99.90;;;;;;5117786;28;20469;-80
2021/07/07 06:44:59;;;;;;;1999.90;999.90;;;19.30;99.90;;;;;;5117532;28;20404;-80
2021/07/07 06:47:25;;;;;;;1999.90;999.90;;;19.40;99.90;;;;;;5117236;28;20420;-80
2021/07/07 06:49:54;;;;;;;1999.90;999.90;;;19.50;99.90;;;;;;5117562;28;20399;-80
2021/07/07 06:52:20;;;;;;;1999.90;999.90;;;19.50;99.90;;;;;;5117686;28;20400;-80
2021/07/07 06:54:48;;;;;;;1999.90;999.90;;;19.50;99.90;;;;;;5118071;28;20403;-80
2021/07/07 06:57:14;;;;;;;1999.90;999.90;;;19.60;99.90;;;;;;5116124;28;20240;-81
2021/07/07 06:59:40;;;;;;;1999.90;999.90;;;19.70;99.90;;;;;;5117438;28;20422;-80
2021/07/07 07:02:05;;;;;;;1999.90;999.90;;;19.80;99.90;;;;;;5099728;28;20209;-81
2021/07/07 07:04:32;;;;;;;1999.90;999.90;;;19.80;99.90;;;;;;5117948;28;20258;-81
2021/07/07 07:06:58;;;;;;;1999.90;999.90;;;19.80;99.90;;;;;;5117161;28;20195;-80
2021/07/07 07:09:28;;;;;;;1999.90;999.90;;;19.80;99.90;;;;;;5118567;28;20480;-80
2021/07/07 07:11:54;;;;;;;1999.90;999.90;;;19.90;99.90;;;;;;5118032;28;20387;-81
2021/07/07 07:14:20;;;;;;;1999.90;999.90;;;19.90;99.90;;;;;;5117407;28;20404;-81
2021/07/07 07:16:46;;;;;;;1999.90;999.90;;;20.00;99.90;;;;;;5117339;28;20418;-81
2021/07/07 07:19:14;;;;;;;1999.90;999.90;;;20.00;99.90;;;;;;5117746;28;20614;-80
2021/07/07 07:21:40;;;;;;;1999.90;999.90;;;19.90;99.90;;;;;;5117293;28;20194;-80
2021/07/07 07:24:07;;;;;;;1999.90;999.90;;;19.90;99.90;;;;;;5116349;28;20408;-81
2021/07/07 07:26:33;;;;;;;1999.90;999.90;;;19.90;99.90;;;;;;5118527;28;20426;-81
2021/07/07 07:29:00;;;;;;;1999.90;999.90;;;19.80;99.90;;;;;;5118762;28;20403;-81
2021/07/07 07:38:02;;;;;;;1999.90;999.90;;;20.00;99.90;;;;;;5068124;28;20422;-83
2021/07/07 07:52:21;;;;;;;1999.90;999.90;;;20.10;99.90;;;;;;5001610;28;20509;-83
2021/07/07 07:55:14;;;;;;;1999.90;999.90;;;20.20;99.90;;;;;;4925223;29;20458;-83
2021/07/07 07:58:09;;;;;;;1999.90;999.90;;;20.20;99.90;;;;;;5008892;28;20410;-83
2021/07/07 08:01:14;;;;;;;;;;;;;;;;;;;;;
2021/07/07 08:04:35;;;;;;;1999.90;999.90;;;20.40;99.90;;;;;;5082078;28;20477;-84
2021/07/07 08:07:45;;;;;;;;;;;;;;;;;;;;;
2021/07/07 08:14:40;;;;;;;1999.90;999.90;;;20.60;99.90;;;;;;4943884;29;20417;-84
2021/07/07 08:18:10;;;;;;;1999.90;999.90;;;20.70;99.90;;;;;;4968940;28;20425;-83
2021/07/07 08:20:53;;;;;;;1999.90;999.90;;;20.60;99.90;;;;;;4977959;28;20410;-83
2021/07/07 08:24:17;;;;;;;;;;;;;;;;;;;;;
2021/07/07 08:27:51;;;;;;;1999.90;999.90;;;20.70;99.90;;;;;;5070045;28;20503;-84
2021/07/07 08:31:06;;;;;;;1999.90;999.90;;;20.70;99.90;;;;;;5044942;28;20496;-83
2021/07/07 08:33:50;;;;;;;1999.90;999.90;;;21.00;99.90;;;;;;5083177;28;20413;-84
2021/07/07 08:44:28;;;;;;;;;;;;;;;;;;;;;
2021/07/07 08:47:41;;;;;;;;;;;;;;;;;;;;;
2021/07/07 08:51:21;;;;;;;1999.90;999.90;;;21.90;99.90;;;;;;5101700;28;20473;-84
2021/07/07 08:54:47;;;;;;;1999.90;999.90;;;22.00;99.90;;;;;;5055652;28;20434;-85
2021/07/07 08:58:21;;;;;;;1999.90;999.90;;;22.10;99.90;;;;;;5097028;28;20484;-85
2021/07/07 09:00:59;;;;;;;1999.90;999.90;;;22.10;99.90;;;;;;5087900;28;20451;-84
2021/07/07 09:04:08;;;;;;;1999.90;999.90;;;22.10;99.90;;;;;;5100777;28;20396;-83
2021/07/07 09:06:39;;;;;;;1999.90;999.90;;;22.20;99.90;;;;;;5101227;28;20874;-85
2021/07/07 09:09:10;;;;;;;1999.90;999.90;;;22.40;99.90;;;;;;5083509;28;20504;-85
2021/07/07 09:12:22;;;;;;;1999.90;999.90;;;22.60;99.90;;;;;;5101293;28;20386;-85
2021/07/07 09:15:17;;;;;;;1999.90;999.90;;;22.60;97.70;;;;;;5058189;28;20488;-85
2021/07/07 09:17:51;;;;;;;1999.90;999.90;;;22.40;99.20;;;;;;5061176;28;20810;-84
2021/07/07 09:20:19;;;;;;;1999.90;999.90;;;22.20;98.30;;;;;;5083152;28;20392;-84
2021/07/07 09:22:46;;;;;;;1999.90;999.90;;;22.20;99.90;;;;;;5082550;28;20410;-82
2021/07/07 09:25:14;;;;;;;1999.90;999.90;;;22.30;99.90;;;;;;5082782;28;20405;-84
2021/07/07 09:27:43;;;;;;;1999.90;999.90;;;22.40;98.30;;;;;;5102133;28;20811;-84
2021/07/07 09:30:13;;;;;;;1999.90;999.90;;;22.50;99.30;;;;;;5101350;28;20957;-84
2021/07/07 09:32:53;;;;;;;1999.90;999.90;;;22.60;94.50;;;;;;5100700;28;20824;-83
2021/07/07 09:35:20;;;;;;;1999.90;999.90;;;22.60;92.60;;;;;;5101164;28;20472;-84
2021/07/07 09:37:56;;;;;;;1999.90;999.90;;;22.50;91.50;;;;;;5100792;28;20398;-84
2021/07/07 09:40:23;;;;;;;1999.90;999.90;;;22.70;93.80;;;;;;5101302;28;20914;-83
2021/07/07 09:43:41;;;;;;;1999.90;999.90;;;22.80;92.50;;;;;;5101757;28;20535;-84
2021/07/07 09:46:14;;;;;;;1999.90;999.90;;;23.00;86.20;;;;;;5084727;28;20425;-84
2021/07/07 09:49:17;;;;;;;1999.90;999.90;;;23.30;92.70;;;;;;5100545;28;20847;-84
2021/07/07 09:51:59;;;;;;;1999.90;999.90;;;23.50;81.50;;;;;;5037938;28;20434;-84
2021/07/07 09:54:42;;;;;;;1999.90;999.90;;;23.70;81.30;;;;;;5082561;28;20431;-84
2021/07/07 10:04:10;;;;;;;1999.90;999.90;;;24.50;60.30;;;;;;5098483;28;20817;-84
2021/07/07 10:07:21;;;;;;;1999.90;999.90;;;24.70;65.80;;;;;;5100050;28;20425;-83
2021/07/07 10:10:36;;;;;;;;;;;;;;;;;;;;;
2021/07/07 10:16:39;;;;;;;1999.90;999.90;;;24.90;40.70;;;;;;5070872;28;20412;-84
2021/07/07 10:20:07;;;;;;;1999.90;999.90;;;24.90;41.60;;;;;;5098320;28;20395;-83
2021/07/07 10:22:59;;;;;;;1999.90;999.90;;;25.00;29.20;;;;;;5056234;28;20897;-83
2021/07/07 10:28:36;;;;;;;1999.90;999.90;;;24.80;28.90;;;;;;1499406;26;20466;-85
2021/07/07 10:31:14;;;;;;;;;;;;;;;;;;;;;
2021/07/07 10:33:55;;;;;;;1999.90;999.90;;;25.20;11.80;;;;;;5079045;28;20479;-84
2021/07/07 10:36:41;;;;;;;1999.90;999.90;;;25.30;17.40;;;;;;5060031;28;20437;-84
2021/07/07 10:39:16;;;;;;;1999.90;999.90;;;25.70;20.50;;;;;;5057936;28;20412;-84
2021/07/07 10:42:21;;;;;;;1999.90;999.90;;;25.90;14.30;;;;;;5079077;28;20488;-85
2021/07/07 10:45:01;;;;;;;1999.90;999.90;;;26.10;7.00;;;;;;5079416;28;20396;-85
2021/07/07 10:48:40;;;;;;;;;;;;;;;;;;;;;
2021/07/07 10:51:47;;;;;;;1999.90;999.90;;;26.40;1.00;;;;;;5037219;28;20401;-84
2021/07/07 10:55:10;;;;;;;1999.90;999.90;;;26.00;1.00;;;;;;4958257;29;20525;-85
2021/07/07 10:57:48;;;;;;;1999.90;999.90;;;25.90;1.00;;;;;;4969711;28;20423;-84
2021/07/07 11:00:52;;;;;;;1999.90;999.90;;;25.60;2.80;;;;;;5036348;28;20419;-85
2021/07/07 11:04:00;;;;;;;1999.90;999.90;;;25.50;2.20;;;;;;5036008;28;20427;-84
2021/07/07 11:07:10;;;;;;;;;;;;;;;;;;;;;
2021/07/07 11:14:12;;;;;;;1999.90;999.90;;;25.40;13.40;;;;;;5015762;28;20474;-83
2021/07/07 11:17:01;;;;;;;1999.90;999.90;;;26.10;4.30;;;;;;5106609;22;20522;-83
2021/07/07 11:20:12;;;;;;;1999.90;999.90;;;26.30;1.00;;;;;;5102861;28;20461;-84
2021/07/07 11:23:20;;;;;;;1999.90;999.90;;;26.10;1.00;;;;;;5018860;28;20460;-83
2021/07/07 11:25:50;;;;;;;1999.90;999.90;;;25.80;1.00;;;;;;5009173;28;20434;-83
2021/07/07 11:28:50;;;;;;;1999.90;999.90;;;25.90;1.00;;;;;;4996338;28;20424;-82
2021/07/07 11:31:27;;;;;;;1999.90;999.90;;;25.70;1.00;;;;;;5052972;28;20413;-82
2021/07/07 11:34:04;;;;;;;1999.90;999.90;;;25.60;1.00;;;;;;5078044;28;20722;-82
2021/07/07 11:36:38;;;;;;;1999.90;999.90;;;25.50;1.00;;;;;;5078499;28;20426;-83
2021/07/07 11:39:10;;;;;;;1999.90;999.90;;;25.60;1.00;;;;;;5079490;28;20441;-84
2021/07/07 11:42:30;;;;;;;;;;;;;;;;;;;;;
2021/07/07 11:45:22;;;;;;;1999.90;999.90;;;25.40;1.00;;;;;;5079909;28;20504;-83
2021/07/07 11:51:07;;;;;;;1999.90;999.90;;;25.40;1.00;;;;;;5034618;28;20514;-83
2021/07/07 11:53:49;;;;;;;1999.90;999.90;;;25.50;2.90;;;;;;5079856;28;20911;-84
2021/07/07 11:56:24;;;;;;;1999.90;999.90;;;25.60;1.50;;;;;;5078431;28;20423;-83
2021/07/07 11:59:00;;;;;;;1999.90;999.90;;;25.60;1.00;;;;;;5080450;28;20384;-83
2021/07/07 12:01:30;;;;;;;1999.90;999.90;;;25.60;1.00;;;;;;5080536;28;20440;-84
2021/07/07 12:03:59;;;;;;;1999.90;999.90;;;25.60;1.00;;;;;;5081936;28;20417;-85
2021/07/07 12:06:45;;;;;;;1999.90;999.90;;;25.60;6.80;;;;;;5082353;28;20418;-84
2021/07/07 12:09:31;;;;;;;1999.90;999.90;;;25.70;8.40;;;;;;5082191;28;20398;-84
2021/07/07 12:12:30;;;;;;;1999.90;999.90;;;26.40;6.70;;;;;;5081385;28;20420;-84
2021/07/07 12:15:10;;;;;;;1999.90;999.90;;;26.90;2.60;;;;;;5081262;28;20765;-84
2021/07/07 12:18:05;;;;;;;1999.90;999.90;;;27.20;1.00;;;;;;5081298;28;20765;-84
2021/07/07 12:24:51;;;;;;;1999.90;999.90;;;26.60;1.00;;;;;;5051430;28;20494;-84
2021/07/07 12:27:35;;;;;;;1999.90;999.90;;;26.30;1.00;;;;;;5056183;28;20562;-85
2021/07/07 12:30:24;;;;;;;1999.90;999.90;;;26.50;1.00;;;;;;5079306;28;20476;-85
2021/07/07 12:33:08;;;;;;;1999.90;999.90;;;26.70;1.00;;;;;;5071514;28;20410;-85
2021/07/07 12:39:37;;;;;;;1999.90;999.90;;;27.00;1.00;;;;;;5026505;28;20409;-84
2021/07/07 12:46:50;;;;;;;1999.90;999.90;;;27.40;1.00;;;;;;4959295;28;20526;-84
2021/07/07 12:50:06;;;;;;;1999.90;999.90;;;27.80;1.00;;;;;;4935669;28;20411;-85
2021/07/07 12:53:12;;;;;;;1999.90;999.90;;;27.30;1.00;;;;;;4980334;28;20403;-85
2021/07/07 12:56:19;;;;;;;1999.90;999.90;;;27.00;1.00;;;;;;5009284;22;20494;-84
2021/07/07 12:59:40;;;;;;;1999.90;999.90;;;26.40;1.00;;;;;;5081517;28;20416;-84
2021/07/07 13:05:54;;;;;;;1999.90;999.90;;;25.70;1.00;;;;;;5039002;28;20456;-83
2021/07/07 13:09:08;;;;;;;1999.90;999.90;;;25.70;1.00;;;;;;5037685;28;20404;-83
2021/07/07 13:13:17;;;;;;;;;;;;;;;;;;;;;
2021/07/07 13:19:19;;;;;;;1999.90;999.90;;;26.60;1.00;;;;;;4980290;28;20442;-84
2021/07/07 13:23:18;;;;;;;1999.90;999.90;;;26.50;1.00;;;;;;4979011;28;20446;-83
2021/07/07 13:25:29;;;;;;;1999.90;999.90;;;26.30;1.00;;;;;;4986394;28;20810;-83
2021/07/07 13:28:33;;;;;;;1999.90;999.90;;;26.20;1.00;;;;;;5037910;28;20415;-83
2021/07/07 13:31:11;;;;;;;1999.90;999.90;;;26.20;1.00;;;;;;4982498;28;20610;-84
2021/07/07 13:34:25;;;;;;;;;;;;;;;;;;;;;
2021/07/07 13:37:06;;;;;;;1999.90;999.90;;;26.30;1.00;;;;;;5078894;28;20483;-84
2021/07/07 13:39:35;;;;;;;1999.90;999.90;;;26.30;1.00;;;;;;5061216;28;20441;-83
2021/07/07 13:42:22;;;;;;;1999.90;999.90;;;26.20;2.10;;;;;;5079116;28;20449;-84
2021/07/07 13:45:16;;;;;;;1999.90;999.90;;;26.10;1.60;;;;;;5078883;28;20383;-84
2021/07/07 13:47:52;;;;;;;1999.90;999.90;;;26.50;1.00;;;;;;5079544;28;20400;-84
2021/07/07 13:50:18;;;;;;;1999.90;999.90;;;26.70;1.00;;;;;;5077543;28;20776;-84
2021/07/07 13:52:51;;;;;;;1999.90;999.90;;;26.70;1.70;;;;;;5076960;28;20455;-83
2021/07/07 13:58:46;;;;;;;1999.90;999.90;;;27.00;1.10;;;;;;5066017;28;20424;-83
2021/07/07 14:01:19;;;;;;;1999.90;999.90;;;27.50;1.00;;;;;;5039210;28;20442;-82
2021/07/07 14:05:04;;;;;;;;;;;;;;;;;;;;;
2021/07/07 14:13:45;;;;;;;1999.90;999.90;;;28.00;1.00;;;;;;4981786;28;20438;-83
2021/07/07 14:16:28;;;;;;;1999.90;999.90;;;28.00;1.00;;;;;;5012859;28;20953;-82
2021/07/07 14:19:17;;;;;;;1999.90;999.90;;;27.70;1.00;;;;;;5074873;28;20378;-83
2021/07/07 14:21:58;;;;;;;1999.90;999.90;;;27.80;1.00;;;;;;5062646;28;20453;-82
2021/07/07 14:28:41;;;;;;;1999.90;999.90;;;28.10;1.00;;;;;;5068986;28;20909;-83
2021/07/07 14:31:17;;;;;;;1999.90;999.90;;;28.00;1.00;;;;;;5074858;28;20383;-84
2021/07/07 14:34:19;;;;;;;;;;;;;;;;;;;;;
2021/07/07 14:36:56;;;;;;;1999.90;999.90;;;27.90;1.00;;;;;;5074103;28;20937;-82
2021/07/07 14:39:22;;;;;;;1999.90;999.90;;;28.10;1.00;;;;;;5070548;28;20508;-83
2021/07/07 14:42:04;;;;;;;;;;;;;;;;;;;;;
2021/07/07 14:48:39;;;;;;;;;;;;;;;;;;;;;
2021/07/07 14:51:09;;;;;;;1999.90;999.90;;;28.40;1.00;;;;;;5076362;28;20420;-83
2021/07/07 14:53:39;;;;;;;1999.90;999.90;;;28.60;1.00;;;;;;5059444;28;20446;-84
2021/07/07 14:59:08;;;;;;;1999.90;999.90;;;28.90;1.00;;;;;;5016299;28;20428;-85
2021/07/07 15:01:34;;;;;;;1999.90;999.90;;;28.70;1.00;;;;;;5073471;28;20502;-83
2021/07/07 15:04:00;;;;;;;1999.90;999.90;;;28.80;1.00;;;;;;5059697;28;20406;-82
2021/07/07 15:06:25;;;;;;;1999.90;999.90;;;28.90;1.00;;;;;;5077054;28;20184;-83
2021/07/07 15:08:51;;;;;;;1999.90;999.90;;;29.10;1.00;;;;;;5059328;28;20183;-83
2021/07/07 15:11:17;;;;;;;1999.90;999.90;;;29.10;1.00;;;;;;5059163;28;20190;-84
2021/07/07 15:13:42;;;;;;;1999.90;999.90;;;29.50;1.00;;;;;;5077321;28;20223;-83
2021/07/07 15:16:09;;;;;;;1999.90;999.90;;;29.60;1.00;;;;;;5060490;28;20278;-83
2021/07/07 15:18:38;;;;;;;1999.90;999.90;;;29.50;1.00;;;;;;5079128;28;20163;-83